Time;durP1;ratioP1;P1;durP2;ratioP2;P2;SDS_P1;SDS_P2;PMS_P1;PMS_P2;Temp;Humidity;BMP_temperature;BMP_pressure;BME280_temperature;BME280_humidity;BME280_pressure;Samples;Min_cycle;Max_cycle;Signal;HPM_P1;HPM_P2
2022/10/27 00:01:21;;;;;;;6.40;2.20;;;;;;;13.70;91.68;101508.88;5089361;28;20204;-80
2022/10/27 00:03:51;;;;;;;6.03;2.10;;;;;;;13.67;91.76;101511.75;5089429;28;20227;-81
2022/10/27 00:06:18;;;;;;;3.27;1.93;;;;;;;13.64;92.45;101511.94;5087646;28;20238;-81
2022/10/27 00:08:44;;;;;;;5.10;2.10;;;;;;;13.65;92.67;101518.16;5089280;28;20643;-80
2022/10/27 00:11:11;;;;;;;4.47;2.77;;;;;;;13.64;92.55;101528.00;5089035;28;20205;-80
2022/10/27 00:13:38;;;;;;;5.63;2.40;;;;;;;13.63;92.76;101526.28;5093016;28;20567;-81
2022/10/27 00:16:06;;;;;;;5.57;2.33;;;;;;;13.60;92.88;101525.63;5090378;28;20200;-81
2022/10/27 00:18:33;;;;;;;5.20;2.27;;;;;;;13.59;93.29;101524.78;5090177;28;20204;-81
2022/10/27 00:21:02;;;;;;;4.27;2.30;;;;;;;13.59;93.07;101526.59;5089416;28;20201;-81
2022/10/27 00:23:30;;;;;;;3.77;2.10;;;;;;;13.55;93.50;101529.44;5090447;28;20224;-81
2022/10/27 00:25:57;;;;;;;6.33;2.20;;;;;;;13.50;92.73;101546.72;5092194;28;20250;-81
2022/10/27 00:28:24;;;;;;;2.50;1.90;;;;;;;13.41;92.19;101534.78;5092185;28;20582;-81
2022/10/27 00:30:57;;;;;;;3.90;2.63;;;;;;;13.33;92.09;101531.72;5093011;28;20569;-81
2022/10/27 00:33:24;;;;;;;3.67;1.90;;;;;;;13.27;91.96;101539.25;5081400;28;20247;-80
2022/10/27 00:35:50;;;;;;;4.90;2.23;;;;;;;13.20;92.03;101536.09;5091054;28;20206;-81
2022/10/27 00:38:18;;;;;;;5.33;2.00;;;;;;;13.15;91.63;101541.72;5090668;28;20208;-81
2022/10/27 00:40:44;;;;;;;3.90;2.00;;;;;;;13.11;91.77;101533.91;5089187;28;20212;-81
2022/10/27 00:43:25;;;;;;;5.40;2.07;;;;;;;13.06;92.01;101544.06;5089787;28;20618;-81
2022/10/27 00:45:51;;;;;;;3.50;2.40;;;;;;;13.01;91.88;101540.78;5088177;28;20216;-81
2022/10/27 00:48:18;;;;;;;4.47;2.07;;;;;;;12.97;92.13;101548.13;5091337;28;20212;-81
2022/10/27 00:50:45;;;;;;;3.47;2.03;;;;;;;12.94;92.43;101550.09;5092088;28;20582;-81
2022/10/27 00:53:12;;;;;;;4.77;2.37;;;;;;;12.92;92.94;101546.66;5086966;28;20220;-81
2022/10/27 00:55:40;;;;;;;5.77;2.80;;;;;;;12.94;93.99;101548.28;5088116;28;20200;-81
2022/10/27 00:58:10;;;;;;;5.07;2.37;;;;;;;12.96;94.58;101549.06;5085425;28;20201;-81
2022/10/27 01:00:39;;;;;;;4.20;2.33;;;;;;;12.99;95.11;101551.56;5088424;28;20188;-81
2022/10/27 01:03:08;;;;;;;4.97;2.73;;;;;;;13.04;95.63;101553.97;5088543;28;20706;-81
2022/10/27 01:05:35;;;;;;;5.80;2.07;;;;;;;13.08;96.04;101547.47;5083996;28;20227;-80
2022/10/27 01:08:05;;;;;;;3.87;2.17;;;;;;;13.11;96.17;101550.81;5086031;28;20231;-81
2022/10/27 01:10:31;;;;;;;5.00;2.00;;;;;;;13.14;96.01;101547.97;5088234;28;21374;-81
2022/10/27 01:13:00;;;;;;;4.27;2.00;;;;;;;13.15;96.32;101549.72;5089680;28;20682;-81
2022/10/27 01:15:36;;;;;;;2.50;2.10;;;;;;;13.15;96.46;101551.53;5090098;28;20217;-81
2022/10/27 01:18:12;;;;;;;5.07;2.23;;;;;;;13.15;96.27;101549.72;5086560;28;20230;-81
2022/10/27 01:20:54;;;;;;;5.07;2.80;;;;;;;13.15;96.70;101557.75;5084708;28;20674;-81
2022/10/27 01:23:33;;;;;;;4.47;1.90;;;;;;;13.15;96.79;101554.22;5089353;28;20266;-82
2022/10/27 01:26:36;;;;;;;3.50;1.70;;;;;;;13.14;96.36;101552.47;5091762;28;20241;-82
2022/10/27 01:29:29;;;;;;;3.80;1.93;;;;;;;13.12;96.37;101555.22;5089959;28;20545;-83
2022/10/27 01:32:05;;;;;;;3.40;2.13;;;;;;;13.10;96.73;101556.25;5088287;28;20196;-82
2022/10/27 01:34:38;;;;;;;3.30;1.90;;;;;;;13.07;96.59;101557.34;5090922;28;20231;-82
2022/10/27 01:37:11;;;;;;;9.47;2.03;;;;;;;13.06;96.36;101547.59;5092954;28;20964;-82
2022/10/27 01:39:42;;;;;;;4.13;1.80;;;;;;;13.04;96.40;101551.31;5089954;28;20197;-83
2022/10/27 01:42:12;;;;;;;6.37;2.10;;;;;;;13.04;96.92;101557.50;5088973;28;20764;-82
2022/10/27 01:44:43;;;;;;;3.57;1.83;;;;;;;13.04;97.12;101557.50;5089131;28;20823;-83
2022/10/27 01:47:13;;;;;;;5.67;2.10;;;;;;;13.04;97.20;101562.00;5090800;28;20216;-82
2022/10/27 01:49:41;;;;;;;2.93;2.17;;;;;;;13.02;96.90;101556.75;5086528;28;20647;-83
2022/10/27 01:52:39;;;;;;;3.87;1.80;;;;;;;13.03;97.39;101563.81;5086149;28;20197;-81
2022/10/27 01:55:08;;;;;;;3.73;2.00;;;;;;;13.02;97.13;101559.41;5086127;28;20598;-81
2022/10/27 01:57:45;;;;;;;3.70;1.77;;;;;;;13.01;97.24;101563.03;5089666;28;20196;-81
2022/10/27 02:00:12;;;;;;;4.20;1.87;;;;;;;12.98;97.51;101571.22;5082835;28;20205;-82
2022/10/27 02:02:46;;;;;;;3.97;2.47;;;;;;;12.96;97.07;101559.75;5086319;28;20204;-81
2022/10/27 02:05:21;;;;;;;3.53;2.23;;;;;;;12.95;97.39;101567.88;5087902;28;20455;-82
2022/10/27 02:07:52;;;;;;;3.63;2.30;;;;;;;12.93;97.41;101567.97;5085947;28;20200;-81
2022/10/27 02:10:24;;;;;;;7.03;2.10;;;;;;;12.91;97.88;101564.50;5083757;28;20204;-81
2022/10/27 02:12:51;;;;;;;2.67;1.97;;;;;;;12.91;97.96;101569.84;5083463;28;20204;-81
2022/10/27 02:15:25;;;;;;;5.00;2.37;;;;;;;12.92;98.15;101568.91;5092032;28;20239;-82
2022/10/27 02:17:57;;;;;;;3.50;1.90;;;;;;;12.94;98.92;101567.00;5088558;28;20554;-83
2022/10/27 02:20:29;;;;;;;6.10;2.40;;;;;;;12.97;99.01;101565.97;5087603;28;20212;-82
2022/10/27 02:22:56;;;;;;;4.73;1.97;;;;;;;13.01;99.30;101564.84;5089224;28;20203;-81
2022/10/27 02:25:30;;;;;;;4.63;2.57;;;;;;;13.04;99.44;101567.34;5089792;28;20236;-82
2022/10/27 02:28:01;;;;;;;4.73;2.20;;;;;;;13.08;99.87;101568.88;5092563;28;20651;-82
2022/10/27 02:30:28;;;;;;;5.10;1.97;;;;;;;13.09;99.49;101579.47;5089058;28;20216;-81
2022/10/27 02:32:56;;;;;;;4.80;2.00;;;;;;;13.11;100.00;101582.91;5084722;28;20594;-81
2022/10/27 02:35:23;;;;;;;6.63;1.97;;;;;;;13.13;100.00;101589.03;5087899;28;20211;-82
2022/10/27 02:37:49;;;;;;;3.07;1.93;;;;;;;13.17;100.00;101598.66;5090924;28;20802;-81
2022/10/27 02:40:16;;;;;;;3.73;1.93;;;;;;;13.20;100.00;101595.81;5088272;28;20207;-81
2022/10/27 02:42:42;;;;;;;3.47;1.90;;;;;;;13.23;100.00;101596.56;5087409;28;20224;-81
2022/10/27 02:45:09;;;;;;;4.50;1.97;;;;;;;13.25;100.00;101594.69;5089447;28;20565;-80
2022/10/27 02:47:36;;;;;;;5.60;1.87;;;;;;;13.27;100.00;101596.28;5090879;28;20567;-81
2022/10/27 02:50:04;;;;;;;4.03;1.90;;;;;;;13.32;100.00;101598.69;5092296;28;20547;-82
2022/10/27 02:52:31;;;;;;;7.80;2.40;;;;;;;13.31;100.00;101591.63;5086941;28;20683;-82
2022/10/27 02:54:57;;;;;;;4.50;2.10;;;;;;;13.33;100.00;101600.41;5089635;28;20991;-82
2022/10/27 02:57:23;;;;;;;3.50;2.30;;;;;;;13.34;100.00;101602.13;5088788;28;20214;-82
2022/10/27 02:59:50;;;;;;;6.37;2.47;;;;;;;13.36;100.00;101600.22;5088123;28;20204;-81
2022/10/27 03:02:17;;;;;;;6.33;2.30;;;;;;;13.37;100.00;101608.16;5086134;28;20211;-81
2022/10/27 03:04:43;;;;;;;3.63;2.37;;;;;;;13.38;100.00;101604.53;5090214;28;20223;-82
2022/10/27 03:07:11;;;;;;;4.37;2.20;;;;;;;13.39;100.00;101605.41;5088765;28;20222;-81
2022/10/27 03:09:38;;;;;;;4.17;2.37;;;;;;;13.41;100.00;101598.16;5081406;28;20196;-82
2022/10/27 03:12:04;;;;;;;5.60;2.70;;;;;;;13.41;100.00;101601.69;5086969;28;20211;-81
2022/10/27 03:14:31;;;;;;;3.27;2.27;;;;;;;13.42;100.00;101599.88;5088268;28;20727;-81
2022/10/27 03:16:57;;;;;;;5.67;3.10;;;;;;;13.45;100.00;101605.03;5086975;28;20674;-81
2022/10/27 03:19:24;;;;;;;5.80;2.20;;;;;;;13.46;100.00;101602.25;5087959;28;20610;-81
2022/10/27 03:21:50;;;;;;;3.87;2.60;;;;;;;13.49;100.00;101607.44;5077493;28;20686;-81
2022/10/27 03:24:18;;;;;;;5.87;4.60;;;;;;;13.44;99.13;101609.50;5088319;28;20220;-81
2022/10/27 03:26:44;;;;;;;5.63;2.93;;;;;;;13.33;97.96;101620.00;5089282;28;20631;-81
2022/10/27 03:29:11;;;;;;;6.67;3.13;;;;;;;13.23;97.42;101617.97;5089572;28;20799;-81
2022/10/27 03:31:37;;;;;;;4.80;3.10;;;;;;;13.13;96.88;101621.13;5089690;28;20200;-81
2022/10/27 03:34:04;;;;;;;5.83;2.87;;;;;;;13.05;96.38;101623.41;5089187;28;20239;-81
2022/10/27 03:36:30;;;;;;;5.20;3.03;;;;;;;12.98;96.16;101621.19;5089190;28;20196;-81
2022/10/27 03:38:57;;;;;;;3.57;2.67;;;;;;;12.91;96.17;101623.34;5090050;28;20287;-82
2022/10/27 03:41:24;;;;;;;5.73;2.80;;;;;;;12.85;95.88;101621.03;5082198;28;20668;-82
2022/10/27 03:43:51;;;;;;;3.63;2.80;;;;;;;12.78;95.83;101619.66;5087016;28;20590;-82
2022/10/27 03:46:17;;;;;;;5.77;3.33;;;;;;;12.73;95.99;101629.72;5084119;28;20225;-81
2022/10/27 03:48:44;;;;;;;3.97;3.00;;;;;;;12.66;95.84;101621.22;5095755;28;20227;-81
2022/10/27 03:51:10;;;;;;;5.13;2.97;;;;;;;12.59;95.49;101622.50;5086715;28;20203;-81
2022/10/27 03:53:37;;;;;;;5.77;3.33;;;;;;;12.55;95.62;101626.28;5092553;28;20763;-81
2022/10/27 03:56:03;;;;;;;5.47;3.10;;;;;;;12.50;95.50;101615.00;5092796;28;20654;-81
2022/10/27 03:58:31;;;;;;;6.20;3.13;;;;;;;12.47;96.21;101623.19;5093598;28;20208;-81
2022/10/27 04:01:01;;;;;;;5.00;3.13;;;;;;;12.45;96.11;101623.28;5094408;28;20204;-81
2022/10/27 04:03:27;;;;;;;6.33;3.00;;;;;;;12.41;96.17;101624.38;5091806;28;20227;-81
2022/10/27 04:05:53;;;;;;;6.47;3.47;;;;;;;12.38;96.30;101624.56;5091802;28;20262;-81
2022/10/27 04:08:20;;;;;;;5.37;3.50;;;;;;;12.36;97.05;101622.94;5089796;28;20601;-81
2022/10/27 04:10:46;;;;;;;6.90;3.20;;;;;;;12.36;97.43;101628.28;5094965;28;20203;-82
2022/10/27 04:13:13;;;;;;;6.20;3.50;;;;;;;12.38;97.97;101637.91;5090567;28;20720;-82
2022/10/27 04:15:41;;;;;;;4.60;3.00;;;;;;;12.38;98.28;101635.25;5092239;28;20207;-81
2022/10/27 04:18:07;;;;;;;8.40;3.17;;;;;;;12.37;98.61;101649.53;5091404;28;20217;-81
2022/10/27 04:20:34;;;;;;;4.77;3.37;;;;;;;12.35;98.71;101643.44;5092346;28;20215;-81
2022/10/27 04:23:01;;;;;;;5.87;3.77;;;;;;;12.33;98.58;101648.00;5089688;28;20200;-82
2022/10/27 04:25:28;;;;;;;4.93;3.87;;;;;;;12.30;98.51;101644.63;5092594;28;20239;-82
2022/10/27 04:28:01;;;;;;;7.70;4.00;;;;;;;12.26;98.75;101643.94;5092748;28;20223;-81
2022/10/27 04:30:28;;;;;;;5.33;3.70;;;;;;;12.23;98.49;101638.75;5085476;28;20211;-82
2022/10/27 04:32:56;;;;;;;8.43;3.70;;;;;;;12.19;98.51;101639.84;5097891;28;20200;-82
2022/10/27 04:35:22;;;;;;;4.23;2.77;;;;;;;12.16;98.53;101634.72;5090435;28;20204;-81
2022/10/27 04:37:49;;;;;;;6.93;3.40;;;;;;;12.13;98.48;101649.09;5091968;28;20549;-80
2022/10/27 04:40:15;;;;;;;4.67;3.63;;;;;;;12.10;98.62;101641.25;5091334;28;20204;-81
2022/10/27 04:42:44;;;;;;;5.30;2.93;;;;;;;12.09;98.73;101638.66;5091909;28;20204;-80
2022/10/27 04:45:10;;;;;;;5.90;3.70;;;;;;;12.06;98.93;101638.81;5086082;28;20229;-81
2022/10/27 04:47:37;;;;;;;6.23;3.13;;;;;;;12.03;99.14;101639.81;5093518;28;20224;-81
2022/10/27 04:50:05;;;;;;;6.40;3.50;;;;;;;12.03;99.42;101630.97;5092007;28;20210;-81
2022/10/27 04:52:32;;;;;;;4.60;3.23;;;;;;;12.02;99.36;101631.91;5092374;28;20208;-81
2022/10/27 04:54:58;;;;;;;6.97;3.50;;;;;;;12.02;100.00;101634.56;5085104;28;20223;-81
2022/10/27 04:57:25;;;;;;;7.20;3.33;;;;;;;12.04;100.00;101633.53;5087714;28;20205;-81
2022/10/27 04:59:51;;;;;;;7.70;3.50;;;;;;;12.06;100.00;101620.97;5093008;28;20640;-81
2022/10/27 05:02:18;;;;;;;7.03;4.00;;;;;;;12.09;100.00;101631.50;5088755;28;20253;-81
2022/10/27 05:04:44;;;;;;;5.60;3.53;;;;;;;12.12;100.00;101625.13;5087365;28;20224;-81
2022/10/27 05:07:12;;;;;;;5.03;3.47;;;;;;;12.14;100.00;101629.44;5086449;28;20226;-81
2022/10/27 05:09:38;;;;;;;6.90;3.50;;;;;;;12.18;100.00;101645.31;5087445;28;20209;-81
2022/10/27 05:12:05;;;;;;;6.17;3.77;;;;;;;12.18;100.00;101629.28;5091371;28;20212;-81
2022/10/27 05:14:32;;;;;;;6.93;3.80;;;;;;;12.18;100.00;101635.50;5089824;28;20252;-82
2022/10/27 05:16:58;;;;;;;9.33;3.67;;;;;;;12.20;100.00;101635.38;5083070;28;20200;-82
2022/10/27 05:19:24;;;;;;;5.10;3.77;;;;;;;12.20;100.00;101644.25;5084053;28;20227;-81
2022/10/27 05:21:51;;;;;;;7.40;4.43;;;;;;;12.22;100.00;101641.50;5084553;28;20200;-82
2022/10/27 05:24:19;;;;;;;8.27;4.17;;;;;;;12.23;100.00;101640.56;5085350;28;20594;-82
2022/10/27 05:26:45;;;;;;;6.03;3.80;;;;;;;12.23;100.00;101644.09;5082660;28;20229;-82
2022/10/27 05:29:11;;;;;;;7.67;4.03;;;;;;;12.24;100.00;101629.78;5084709;28;20685;-82
2022/10/27 05:31:38;;;;;;;6.20;4.30;;;;;;;12.24;100.00;101635.13;5086614;28;20202;-82
2022/10/27 05:34:04;;;;;;;6.40;4.30;;;;;;;12.24;100.00;101631.59;5088302;28;20694;-83
2022/10/27 05:36:31;;;;;;;7.47;4.47;;;;;;;12.23;100.00;101632.56;5082464;28;20706;-82
2022/10/27 05:38:57;;;;;;;7.93;5.10;;;;;;;12.20;100.00;101632.72;5087349;28;20207;-82
2022/10/27 05:41:25;;;;;;;6.87;4.33;;;;;;;12.15;100.00;101627.66;5088572;28;20208;-82
2022/10/27 05:43:52;;;;;;;4.73;3.80;;;;;;;12.10;100.00;101627.03;5086804;28;20227;-82
2022/10/27 05:46:18;;;;;;;6.67;4.40;;;;;;;12.05;100.00;101631.75;5085642;28;20208;-81
2022/10/27 05:48:44;;;;;;;5.50;3.77;;;;;;;12.00;100.00;101631.16;5082898;28;20218;-82
2022/10/27 05:51:11;;;;;;;4.73;3.90;;;;;;;11.95;100.00;101634.06;5081786;28;20573;-83
2022/10/27 05:53:37;;;;;;;6.77;4.40;;;;;;;11.91;100.00;101631.63;5087136;28;20720;-82
2022/10/27 05:56:04;;;;;;;9.40;5.13;;;;;;;11.90;100.00;101633.44;5092026;28;20438;-83
2022/10/27 05:58:32;;;;;;;8.10;4.77;;;;;;;11.90;100.00;101635.22;5090897;28;20222;-82
2022/10/27 06:00:59;;;;;;;7.03;4.93;;;;;;;11.93;100.00;101638.59;5082509;28;20553;-82
2022/10/27 06:03:26;;;;;;;9.23;5.40;;;;;;;11.94;100.00;101640.34;5087528;28;20257;-82
2022/10/27 06:05:53;;;;;;;7.03;5.77;;;;;;;11.96;100.00;101645.59;5092140;28;20200;-82
2022/10/27 06:08:20;;;;;;;7.53;6.53;;;;;;;11.97;100.00;101644.66;5089525;28;20221;-82
2022/10/27 06:10:47;;;;;;;6.60;5.33;;;;;;;11.97;100.00;101648.19;5090300;28;20212;-82
2022/10/27 06:13:13;;;;;;;8.73;5.93;;;;;;;11.98;100.00;101649.06;5086563;28;20591;-82
2022/10/27 06:15:42;;;;;;;7.77;5.93;;;;;;;11.97;100.00;101656.19;5088912;28;20196;-82
2022/10/27 06:18:08;;;;;;;7.90;5.93;;;;;;;11.97;100.00;101653.53;5081787;28;20209;-83
2022/10/27 06:20:35;;;;;;;7.10;6.10;;;;;;;11.95;100.00;101643.88;5087342;28;20219;-82
2022/10/27 06:23:01;;;;;;;10.47;7.07;;;;;;;11.94;100.00;101650.16;5088294;28;20196;-81
2022/10/27 06:25:28;;;;;;;10.23;6.00;;;;;;;11.93;100.00;101651.09;5082856;28;20207;-82
2022/10/27 06:27:56;;;;;;;9.30;6.30;;;;;;;11.91;100.00;101653.84;5091098;28;20226;-82
2022/10/27 06:30:22;;;;;;;9.70;7.30;;;;;;;11.91;100.00;101647.63;5091157;28;20208;-81
2022/10/27 06:32:50;;;;;;;10.20;6.73;;;;;;;11.90;100.00;101654.78;5084813;28;20645;-81
2022/10/27 06:35:17;;;;;;;9.33;6.87;;;;;;;11.92;100.00;101660.91;5086998;28;20197;-82
2022/10/27 06:37:45;;;;;;;11.23;7.53;;;;;;;11.92;100.00;101650.22;5086355;28;20268;-82
2022/10/27 06:40:13;;;;;;;11.40;7.60;;;;;;;11.94;100.00;101661.69;5090838;28;20200;-81
2022/10/27 06:42:40;;;;;;;10.77;7.50;;;;;;;11.96;100.00;101653.59;5089050;28;20698;-82
2022/10/27 06:45:08;;;;;;;10.93;7.73;;;;;;;11.99;100.00;101653.44;5085746;28;20221;-81
2022/10/27 06:47:35;;;;;;;8.47;6.90;;;;;;;12.00;100.00;101655.19;5084911;28;20590;-82
2022/10/27 06:50:03;;;;;;;11.13;7.23;;;;;;;12.02;100.00;101661.25;5085888;28;20567;-82
2022/10/27 06:52:29;;;;;;;10.77;7.67;;;;;;;12.08;100.00;101663.63;5090123;28;20610;-81
2022/10/27 06:54:56;;;;;;;14.53;7.73;;;;;;;12.12;100.00;101670.53;5084491;28;20228;-82
2022/10/27 06:57:22;;;;;;;8.87;6.77;;;;;;;12.17;100.00;101665.81;5086652;28;20209;-82
2022/10/27 06:59:49;;;;;;;8.27;6.60;;;;;;;12.24;100.00;101672.53;5090627;28;20215;-82
2022/10/27 07:02:15;;;;;;;10.13;6.50;;;;;;;12.32;100.00;101673.00;5083076;28;20204;-82
2022/10/27 07:04:41;;;;;;;7.63;5.87;;;;;;;12.40;100.00;101675.22;5085046;28;20227;-81
2022/10/27 07:07:09;;;;;;;7.47;5.60;;;;;;;12.50;100.00;101676.47;5083439;28;20679;-81
2022/10/27 07:09:36;;;;;;;10.17;6.17;;;;;;;12.60;100.00;101680.34;5087093;28;20626;-82
2022/10/27 07:12:02;;;;;;;10.07;6.23;;;;;;;12.69;100.00;101678.97;5089325;28;20204;-82
2022/10/27 07:14:29;;;;;;;7.23;6.13;;;;;;;12.73;100.00;101686.72;5083314;28;20228;-82
2022/10/27 07:16:55;;;;;;;10.00;6.70;;;;;;;12.77;100.00;101698.13;5087950;28;20205;-82
2022/10/27 07:19:21;;;;;;;8.60;6.63;;;;;;;12.81;100.00;101689.84;5083872;28;20213;-82
2022/10/27 07:21:48;;;;;;;12.37;6.37;;;;;;;12.83;100.00;101690.63;5088537;28;20690;-81
2022/10/27 07:24:16;;;;;;;8.40;5.87;;;;;;;12.87;100.00;101694.00;5088319;28;20694;-82
2022/10/27 07:26:42;;;;;;;13.03;6.90;;;;;;;12.92;100.00;101691.03;5089363;28;20774;-82
2022/10/27 07:29:08;;;;;;;8.23;6.20;;;;;;;12.97;100.00;101689.84;5084532;28;20197;-82
2022/10/27 07:31:35;;;;;;;10.30;6.37;;;;;;;13.04;100.00;101696.56;5087125;28;20220;-82
2022/10/27 07:34:01;;;;;;;9.37;5.30;;;;;;;13.11;100.00;101686.38;5088887;28;20846;-83
2022/10/27 07:36:28;;;;;;;9.63;5.63;;;;;;;13.18;100.00;101690.47;5088236;28;20200;-82
2022/10/27 07:38:54;;;;;;;8.67;5.60;;;;;;;13.25;100.00;101691.84;5090383;28;20207;-82
2022/10/27 07:41:22;;;;;;;6.43;4.80;;;;;;;13.34;100.00;101693.09;5085506;28;20203;-82
2022/10/27 07:43:48;;;;;;;8.13;5.67;;;;;;;13.44;100.00;101704.97;5087267;28;20227;-82
2022/10/27 07:46:15;;;;;;;8.27;5.10;;;;;;;13.54;100.00;101700.84;5087863;28;20200;-82
2022/10/27 07:48:41;;;;;;;8.00;4.77;;;;;;;13.63;100.00;101705.63;5088012;28;20220;-82
2022/10/27 07:51:08;;;;;;;10.67;4.50;;;;;;;13.75;100.00;101706.72;5089604;28;20196;-82
2022/10/27 07:53:34;;;;;;;7.43;4.13;;;;;;;13.86;100.00;101712.28;5084610;28;20228;-82
2022/10/27 07:56:04;;;;;;;7.63;3.93;;;;;;;13.97;100.00;101706.31;5085340;28;20239;-82
2022/10/27 07:58:31;;;;;;;5.87;3.53;;;;;;;14.05;100.00;101704.88;5086008;28;20200;-82
2022/10/27 08:00:59;;;;;;;9.57;3.37;;;;;;;14.13;100.00;101713.31;5085007;28;20204;-82
2022/10/27 08:03:28;;;;;;;8.47;3.37;;;;;;;14.22;100.00;101715.41;5085166;28;20229;-81
2022/10/27 08:05:57;;;;;;;5.77;3.50;;;;;;;14.29;100.00;101709.69;5083384;28;20392;-82
2022/10/27 08:08:23;;;;;;;4.70;3.20;;;;;;;14.36;100.00;101711.88;5076985;28;20327;-82
2022/10/27 08:10:50;;;;;;;3.80;3.00;;;;;;;14.44;100.00;101714.13;5087686;28;20681;-82
2022/10/27 08:13:17;;;;;;;5.47;3.10;;;;;;;14.51;100.00;101712.78;5087170;28;20229;-82
2022/10/27 08:15:46;;;;;;;4.40;3.23;;;;;;;14.58;100.00;101717.66;5078342;28;20201;-82
2022/10/27 08:18:13;;;;;;;7.57;3.67;;;;;;;14.66;100.00;101717.19;5084240;28;20216;-82
2022/10/27 08:20:41;;;;;;;4.70;3.50;;;;;;;14.74;100.00;101714.84;5084377;28;20207;-82
2022/10/27 08:23:10;;;;;;;6.30;3.43;;;;;;;14.83;100.00;101713.41;5088939;28;20204;-82
2022/10/27 08:25:37;;;;;;;5.97;3.13;;;;;;;14.91;100.00;101714.63;5087887;28;20209;-82
2022/10/27 08:28:04;;;;;;;6.53;2.90;;;;;;;15.00;100.00;101721.22;5083728;28;20224;-82
2022/10/27 08:30:32;;;;;;;5.20;2.97;;;;;;;15.08;100.00;101716.22;5087393;28;20215;-82
2022/10/27 08:33:02;;;;;;;5.27;2.90;;;;;;;15.14;100.00;101715.81;5090250;28;20201;-82
2022/10/27 08:35:30;;;;;;;6.80;2.80;;;;;;;15.21;100.00;101713.59;5087500;28;20659;-82
2022/10/27 08:38:00;;;;;;;4.97;2.73;;;;;;;15.25;100.00;101724.00;5087654;28;20250;-82
2022/10/27 08:40:36;;;;;;;4.33;2.27;;;;;;;15.31;100.00;101711.16;5084557;28;20244;-82
2022/10/27 08:43:16;;;;;;;5.57;2.70;;;;;;;15.36;99.56;101714.41;5089234;28;20201;-82
2022/10/27 08:45:52;;;;;;;4.93;2.60;;;;;;;15.42;98.91;101708.63;5086253;28;20650;-82
2022/10/27 08:48:25;;;;;;;3.27;2.33;;;;;;;15.47;98.32;101714.53;5088868;28;20664;-82
2022/10/27 08:50:52;;;;;;;4.17;2.57;;;;;;;15.54;97.78;101715.88;5083924;28;20207;-82
2022/10/27 08:53:26;;;;;;;6.17;2.77;;;;;;;15.59;97.42;101713.75;5089687;28;20224;-82
2022/10/27 08:55:57;;;;;;;4.33;2.80;;;;;;;15.66;96.69;101711.50;5085959;28;20679;-82
2022/10/27 08:58:34;;;;;;;4.60;2.77;;;;;;;15.74;96.15;101722.63;5082278;28;20215;-82
2022/10/27 09:01:04;;;;;;;4.63;2.27;;;;;;;15.82;95.71;101704.13;5083775;28;20210;-82
2022/10/27 09:03:47;;;;;;;4.87;2.03;;;;;;;15.90;95.34;101710.72;5083774;28;20241;-82
2022/10/27 09:06:18;;;;;;;3.97;2.23;;;;;;;16.01;94.71;101717.16;5086252;28;20203;-83
2022/10/27 09:08:51;;;;;;;4.67;2.60;;;;;;;16.12;94.58;101704.69;5088639;28;20215;-83
2022/10/27 09:11:26;;;;;;;3.63;2.77;;;;;;;16.24;94.02;101703.00;5084157;28;20207;-82
2022/10/27 09:14:08;;;;;;;3.47;2.63;;;;;;;16.36;93.58;101701.25;5081573;28;20233;-82
2022/10/27 09:16:41;;;;;;;4.30;2.30;;;;;;;16.48;93.04;101697.72;5079273;28;20193;-83
2022/10/27 09:19:14;;;;;;;4.77;2.40;;;;;;;16.58;92.15;101690.69;5081914;28;20207;-83
2022/10/27 09:21:43;;;;;;;5.90;2.50;;;;;;;16.66;91.24;101683.81;5081848;28;20198;-82
2022/10/27 09:24:13;;;;;;;5.03;2.27;;;;;;;16.77;90.49;101684.88;5082676;28;20688;-83
2022/10/27 09:26:41;;;;;;;6.67;2.53;;;;;;;16.89;89.82;101674.06;5083649;28;20800;-84
2022/10/27 09:29:16;;;;;;;2.67;2.43;;;;;;;17.00;89.02;101675.97;5081797;28;20255;-82
2022/10/27 09:31:48;;;;;;;6.53;2.20;;;;;;;17.10;87.89;101668.06;5084321;28;20198;-82
2022/10/27 09:34:19;;;;;;;4.60;2.00;;;;;;;17.20;86.99;101672.63;5082063;28;20236;-82
2022/10/27 09:36:46;;;;;;;3.70;2.20;;;;;;;17.29;86.40;101668.41;5079513;28;20205;-83
2022/10/27 09:39:13;;;;;;;4.23;2.30;;;;;;;17.39;85.72;101672.09;5082952;28;20201;-84
2022/10/27 09:41:39;;;;;;;4.40;2.40;;;;;;;17.46;85.11;101667.13;5087002;28;20207;-83
2022/10/27 09:44:18;;;;;;;5.27;2.33;;;;;;;17.54;84.49;101675.50;5084525;28;20609;-82
2022/10/27 09:46:48;;;;;;;3.37;2.40;;;;;;;17.60;83.96;101683.09;5084828;28;20206;-82
2022/10/27 09:49:18;;;;;;;2.93;2.60;;;;;;;17.65;82.57;101680.94;5079506;28;20246;-82
2022/10/27 09:51:48;;;;;;;2.83;2.20;;;;;;;17.69;82.34;101685.13;5086550;28;20206;-83
2022/10/27 09:54:31;;;;;;;4.13;2.20;;;;;;;17.75;81.91;101679.25;5085169;28;20225;-82
2022/10/27 09:57:04;;;;;;;3.03;2.60;;;;;;;17.82;80.59;101685.88;5085803;28;20201;-82
2022/10/27 09:59:31;;;;;;;4.53;2.40;;;;;;;17.86;80.13;101683.81;5087653;28;20197;-83
2022/10/27 10:01:58;;;;;;;6.13;2.70;;;;;;;17.89;79.70;101679.06;5086350;28;20210;-82
2022/10/27 10:04:29;;;;;;;3.97;2.13;;;;;;;17.95;79.20;101675.00;5088028;28;20222;-82
2022/10/27 10:06:58;;;;;;;2.50;1.83;;;;;;;17.99;78.50;101671.97;5080425;28;20201;-83
2022/10/27 10:09:28;;;;;;;6.13;2.30;;;;;;;18.04;77.88;101682.38;5082511;28;20880;-82
2022/10/27 10:12:18;;;;;;;3.57;2.00;;;;;;;18.07;77.64;101665.97;5088199;28;20660;-82
2022/10/27 10:14:45;;;;;;;3.13;2.43;;;;;;;18.10;77.33;101675.63;5084269;28;20226;-82
2022/10/27 10:17:23;;;;;;;4.50;2.17;;;;;;;18.15;77.47;101668.06;5084377;28;20206;-82
2022/10/27 10:19:52;;;;;;;4.77;1.80;;;;;;;18.21;77.05;101662.19;5079685;28;20221;-82
2022/10/27 10:22:24;;;;;;;2.73;1.80;;;;;;;18.26;76.87;101665.38;5082283;28;20676;-82
2022/10/27 10:24:51;;;;;;;5.13;2.13;;;;;;;18.32;76.79;101667.56;5083634;28;20227;-82
2022/10/27 10:27:28;;;;;;;4.80;2.10;;;;;;;18.36;76.54;101658.25;5081889;28;20241;-83
2022/10/27 10:29:57;;;;;;;3.20;1.97;;;;;;;18.40;75.97;101665.13;5081418;28;20861;-83
2022/10/27 10:32:25;;;;;;;5.00;1.93;;;;;;;18.47;75.47;101660.94;5086726;28;20242;-82
2022/10/27 10:34:53;;;;;;;5.10;2.17;;;;;;;18.51;74.82;101661.56;5085972;28;21174;-83
2022/10/27 10:37:30;;;;;;;2.63;1.83;;;;;;;18.55;74.51;101671.13;5081712;28;20663;-83
2022/10/27 10:40:09;;;;;;;3.40;1.77;;;;;;;18.60;73.83;101664.44;5081756;28;20210;-83
2022/10/27 10:42:36;;;;;;;5.43;2.10;;;;;;;18.65;73.44;101664.88;5083711;28;20214;-83
2022/10/27 10:45:10;;;;;;;3.03;1.70;;;;;;;18.71;73.20;101661.69;5079819;28;20224;-82
2022/10/27 10:47:37;;;;;;;5.83;2.13;;;;;;;18.76;72.72;101657.78;5080954;28;20662;-82
2022/10/27 10:50:13;;;;;;;4.00;1.50;;;;;;;18.81;72.73;101652.88;5081051;28;20226;-82
2022/10/27 10:52:46;;;;;;;4.00;1.77;;;;;;;18.85;72.39;101654.31;5086172;28;20201;-82
2022/10/27 10:55:20;;;;;;;2.37;1.60;;;;;;;18.90;72.43;101650.25;5078623;28;20229;-82
2022/10/27 10:57:47;;;;;;;3.10;1.53;;;;;;;18.93;71.94;101649.16;5081181;28;20653;-83
2022/10/27 11:00:16;;;;;;;3.07;1.40;;;;;;;18.98;71.79;101647.78;5082466;28;20210;-82
2022/10/27 11:02:52;;;;;;;4.60;1.43;;;;;;;18.99;71.40;101645.91;5080074;28;20226;-83
2022/10/27 11:05:23;;;;;;;2.07;1.43;;;;;;;19.00;71.47;101639.53;5083782;28;20217;-83
2022/10/27 11:07:51;;;;;;;1.87;1.47;;;;;;;19.03;71.19;101633.88;5084586;28;20209;-82
2022/10/27 11:10:22;;;;;;;3.03;1.60;;;;;;;19.04;71.52;101632.91;5081788;28;20207;-83
2022/10/27 11:12:52;;;;;;;3.50;1.40;;;;;;;19.08;71.18;101629.81;5086978;28;20292;-83
2022/10/27 11:15:24;;;;;;;4.27;1.73;;;;;;;19.10;71.13;101626.16;5080987;28;20208;-83
2022/10/27 11:17:56;;;;;;;3.37;1.50;;;;;;;19.12;70.98;101633.13;5084545;28;20211;-82
2022/10/27 11:20:29;;;;;;;4.20;1.70;;;;;;;19.14;70.67;101617.66;5089618;28;20214;-82
2022/10/27 11:22:57;;;;;;;2.33;1.50;;;;;;;19.16;70.52;101620.25;5088985;28;20215;-82
2022/10/27 11:25:30;;;;;;;2.90;1.37;;;;;;;19.19;70.15;101610.00;5094178;28;20214;-82
2022/10/27 11:28:10;;;;;;;2.87;1.70;;;;;;;19.20;70.13;101603.63;5089329;28;20209;-83
2022/10/27 11:30:45;;;;;;;2.73;1.60;;;;;;;19.24;70.53;101599.69;5085774;28;20210;-82